Time;durP1;ratioP1;P1;durP2;ratioP2;P2;SDS_P1;SDS_P2;PMS_P1;PMS_P2;Temp;Humidity;BMP_temperature;BMP_pressure;BME280_temperature;BME280_humidity;BME280_pressure;Samples;Min_cycle;Max_cycle;Signal;HPM_P1;HPM_P2
2022/12/15 00:40:13;;;;;;;28.37;16.70;;;2.80;99.90;;;;;;7394427;19;20478;-75
2022/12/15 00:42:38;;;;;;;26.50;16.43;;;2.50;99.90;;;;;;7394341;19;20127;-75
2022/12/15 00:45:04;;;;;;;27.47;16.20;;;2.40;99.90;;;;;;7397339;19;20648;-76
2022/12/15 00:47:31;;;;;;;28.47;16.77;;;2.60;99.90;;;;;;7396378;19;20151;-75
2022/12/15 01:20:17;;;;;;;28.60;16.63;;;2.50;99.90;;;;;;7394900;19;20210;-75
2022/12/15 01:22:48;;;;;;;29.60;16.40;;;2.50;99.90;;;;;;7395208;19;20158;-76
2022/12/15 01:25:15;;;;;;;28.17;17.20;;;2.60;99.90;;;;;;7397661;19;20147;-75
2022/12/15 01:27:41;;;;;;;29.03;16.27;;;2.60;99.90;;;;;;7397040;19;20575;-75
2022/12/15 01:30:09;;;;;;;26.80;15.90;;;2.60;99.90;;;;;;7396004;19;20134;-76
2022/12/15 01:32:35;;;;;;;27.77;15.93;;;2.60;99.90;;;;;;7394246;19;20170;-76
2022/12/15 01:35:02;;;;;;;28.43;16.43;;;2.60;99.90;;;;;;7394737;19;20146;-76
2022/12/15 01:37:28;;;;;;;27.90;16.83;;;2.60;99.90;;;;;;7394540;19;20604;-76
2022/12/15 01:42:38;;;;;;;26.57;15.97;;;2.70;99.90;;;;;;7395511;19;20501;-75
2022/12/15 01:45:22;;;;;;;25.77;15.67;;;2.60;99.90;;;;;;7396853;19;20142;-76
2022/12/15 01:47:50;;;;;;;28.20;16.43;;;2.60;99.90;;;;;;7394628;19;20178;-75
2022/12/15 01:50:16;;;;;;;26.70;15.87;;;2.60;99.90;;;;;;7395516;19;20134;-76
2022/12/15 01:52:42;;;;;;;28.53;15.87;;;2.50;99.90;;;;;;7390874;19;20139;-76
2022/12/15 01:55:09;;;;;;;29.03;15.43;;;2.50;99.90;;;;;;7391829;19;20190;-76
2022/12/15 01:57:35;;;;;;;29.00;15.60;;;2.50;99.90;;;;;;7392241;19;20143;-75
2022/12/15 02:00:05;;;;;;;29.53;16.97;;;2.50;99.90;;;;;;7393092;19;20134;-75
2022/12/15 02:05:07;;;;;;;26.53;16.60;;;2.50;99.90;;;;;;7349307;19;20214;-77
2022/12/15 02:07:33;;;;;;;25.57;15.97;;;2.50;99.90;;;;;;7388652;19;20251;-75
2022/12/15 02:10:01;;;;;;;27.13;16.20;;;2.60;99.90;;;;;;7391270;19;20641;-76
2022/12/15 02:12:42;;;;;;;24.20;15.53;;;2.60;99.90;;;;;;7391261;19;20134;-76
2022/12/15 02:15:22;;;;;;;30.90;16.47;;;2.50;99.90;;;;;;7391976;19;20142;-76
2022/12/15 02:18:03;;;;;;;27.47;15.50;;;2.60;99.90;;;;;;7393151;19;20127;-75
2022/12/15 02:20:38;;;;;;;28.33;16.40;;;2.60;99.90;;;;;;7388046;19;20217;-76
2022/12/15 02:23:22;;;;;;;29.90;16.63;;;2.60;99.90;;;;;;7387624;19;20157;-76
2022/12/15 02:26:06;;;;;;;26.73;15.77;;;2.60;99.90;;;;;;7398336;19;20242;-76
2022/12/15 02:29:09;;;;;;;29.57;16.33;;;2.60;99.90;;;;;;7397960;19;20151;-77
2022/12/15 02:31:49;;;;;;;28.93;16.07;;;2.50;99.90;;;;;;7399038;19;20178;-76
2022/12/15 02:34:31;;;;;;;28.53;16.43;;;2.50;99.90;;;;;;7388734;19;20952;-77
2022/12/15 02:37:06;;;;;;;28.37;16.13;;;2.50;99.90;;;;;;7399980;19;20153;-77
2022/12/15 02:39:32;;;;;;;26.33;14.93;;;2.50;99.90;;;;;;7397397;19;20539;-77
2022/12/15 02:41:58;;;;;;;29.43;16.90;;;2.50;99.90;;;;;;7396798;19;20134;-77
2022/12/15 02:44:31;;;;;;;26.80;16.83;;;2.50;99.90;;;;;;7397818;19;20143;-77
2022/12/15 02:47:34;;;;;;;29.70;15.90;;;2.50;99.90;;;;;;7394116;19;20164;-77
2022/12/15 02:50:23;;;;;;;29.77;16.63;;;2.50;99.90;;;;;;7399896;19;20142;-76
2022/12/15 02:53:08;;;;;;;28.90;16.27;;;2.50;99.90;;;;;;7397486;19;20139;-77
2022/12/15 02:55:56;;;;;;;25.77;15.07;;;2.60;99.90;;;;;;7396862;19;20150;-77
2022/12/15 02:58:29;;;;;;;33.37;17.00;;;2.60;99.90;;;;;;7397197;19;20166;-76
2022/12/15 03:01:00;;;;;;;30.23;16.97;;;2.50;99.90;;;;;;7397031;19;20147;-77
2022/12/15 03:03:28;;;;;;;32.27;17.70;;;2.40;99.90;;;;;;7393478;19;20193;-77
2022/12/15 03:05:56;;;;;;;34.03;17.53;;;2.40;99.90;;;;;;7397577;19;20182;-76
2022/12/15 03:08:22;;;;;;;29.83;17.27;;;2.50;99.90;;;;;;7395469;19;20214;-77
2022/12/15 03:10:51;;;;;;;28.63;16.57;;;2.30;99.90;;;;;;7398664;19;20202;-76
2022/12/15 03:13:16;;;;;;;32.17;17.47;;;2.40;99.90;;;;;;7392468;19;20552;-77
2022/12/15 03:15:42;;;;;;;29.03;16.73;;;2.50;99.90;;;;;;7396856;19;20149;-75
2022/12/15 03:18:08;;;;;;;32.93;17.00;;;2.40;99.90;;;;;;7398768;19;20153;-75
2022/12/15 03:20:34;;;;;;;28.73;15.27;;;2.50;99.90;;;;;;7395512;19;20143;-76
2022/12/15 03:23:00;;;;;;;31.73;16.63;;;2.50;99.90;;;;;;7392607;19;20165;-77
2022/12/15 03:25:27;;;;;;;29.53;16.70;;;2.50;99.90;;;;;;7397426;19;20628;-76
2022/12/15 03:27:52;;;;;;;29.03;16.00;;;2.50;99.90;;;;;;7397505;19;20185;-76
2022/12/15 03:30:18;;;;;;;28.63;16.33;;;2.40;99.90;;;;;;7398875;19;20458;-76
2022/12/15 03:32:44;;;;;;;31.17;17.90;;;2.50;99.90;;;;;;7398966;19;20495;-76
2022/12/15 03:35:11;;;;;;;33.97;16.90;;;2.50;99.90;;;;;;7395408;19;20138;-76
2022/12/15 03:37:38;;;;;;;28.70;16.20;;;2.30;99.90;;;;;;7394354;19;20138;-75
2022/12/15 03:40:05;;;;;;;32.80;16.17;;;2.40;99.90;;;;;;7395709;19;20158;-76
2022/12/15 03:42:48;;;;;;;28.60;15.47;;;2.50;99.90;;;;;;7393214;19;20198;-76
2022/12/15 03:45:25;;;;;;;29.50;16.83;;;2.50;99.90;;;;;;7396364;19;20126;-76
2022/12/15 03:47:52;;;;;;;33.53;17.57;;;2.30;99.90;;;;;;7392852;19;20134;-76
2022/12/15 03:50:21;;;;;;;28.07;16.77;;;2.20;99.90;;;;;;7396192;19;20154;-76
2022/12/15 03:52:55;;;;;;;28.93;15.80;;;2.40;99.90;;;;;;7394953;19;20171;-76
2022/12/15 03:55:22;;;;;;;32.67;17.17;;;2.50;99.90;;;;;;7396107;19;20134;-77
2022/12/15 03:57:48;;;;;;;29.90;15.70;;;2.50;99.90;;;;;;7396087;19;20174;-76
2022/12/15 04:00:15;;;;;;;29.73;16.47;;;2.60;99.90;;;;;;7395396;19;20984;-76
2022/12/15 04:02:41;;;;;;;29.07;16.67;;;2.10;99.90;;;;;;7394311;19;20171;-76
2022/12/15 04:05:11;;;;;;;28.97;15.40;;;1.90;99.90;;;;;;7393233;19;20155;-77
2022/12/15 04:07:37;;;;;;;33.07;17.87;;;2.10;99.90;;;;;;7395323;19;20150;-77
2022/12/15 04:10:03;;;;;;;33.23;17.23;;;1.90;99.90;;;;;;7396068;19;20145;-76
2022/12/15 04:12:28;;;;;;;30.50;16.67;;;1.60;99.90;;;;;;7393593;19;20131;-77
2022/12/15 04:14:54;;;;;;;27.83;15.47;;;1.90;99.90;;;;;;7393606;19;20165;-76
2022/12/15 04:17:20;;;;;;;33.83;16.97;;;2.20;99.90;;;;;;7394004;19;20161;-75
2022/12/15 04:22:31;;;;;;;28.47;15.97;;;2.20;99.90;;;;;;7394704;19;20505;-76
2022/12/15 05:33:34;;;;;;;31.63;17.30;;;2.20;99.90;;;;;;7392293;19;20130;-76
2022/12/15 05:36:00;;;;;;;30.40;16.43;;;2.30;99.90;;;;;;7393830;19;20174;-76
2022/12/15 05:38:26;;;;;;;31.57;16.87;;;1.70;99.90;;;;;;7392194;19;20150;-77
2022/12/15 05:40:51;;;;;;;33.83;16.80;;;2.00;99.90;;;;;;7387532;19;20131;-77
2022/12/15 05:43:17;;;;;;;28.47;15.10;;;2.30;99.90;;;;;;7390097;19;20131;-76
2022/12/15 05:45:43;;;;;;;32.47;17.23;;;2.40;99.90;;;;;;7389799;19;20135;-76
2022/12/15 05:48:08;;;;;;;29.67;15.20;;;2.40;99.90;;;;;;7390324;19;20150;-76
2022/12/15 05:50:34;;;;;;;33.93;17.73;;;2.10;99.90;;;;;;7389387;19;20155;-76
2022/12/15 05:53:00;;;;;;;32.43;17.30;;;2.30;99.90;;;;;;7388576;19;20170;-77
2022/12/15 05:55:26;;;;;;;30.17;16.73;;;2.40;99.90;;;;;;7390033;19;20150;-76
2022/12/15 05:57:54;;;;;;;29.63;15.90;;;2.20;99.90;;;;;;7383817;19;20591;-77
2022/12/15 06:00:21;;;;;;;32.13;16.20;;;2.40;99.90;;;;;;7389959;19;20166;-76
2022/12/15 06:02:47;;;;;;;30.40;17.63;;;2.50;99.90;;;;;;7389170;19;20150;-76
2022/12/15 06:05:13;;;;;;;34.17;17.00;;;2.60;99.90;;;;;;7390015;19;20182;-75
2022/12/15 06:07:38;;;;;;;31.97;17.37;;;2.70;99.90;;;;;;7388040;19;20521;-76
2022/12/15 06:10:04;;;;;;;30.20;17.17;;;2.20;99.90;;;;;;7392031;19;20147;-76
2022/12/15 06:12:30;;;;;;;30.40;16.10;;;2.30;99.90;;;;;;7391194;19;20638;-75
2022/12/15 06:14:56;;;;;;;28.53;16.73;;;2.40;99.90;;;;;;7390598;19;20171;-78
2022/12/15 06:17:22;;;;;;;33.90;16.77;;;2.50;99.90;;;;;;7390134;19;20146;-76
2022/12/15 06:19:47;;;;;;;34.77;18.10;;;2.50;99.90;;;;;;7391236;19;20610;-76
2022/12/15 06:22:13;;;;;;;32.57;16.97;;;2.50;99.90;;;;;;7390002;19;20138;-78
2022/12/15 06:24:39;;;;;;;31.73;16.83;;;2.40;99.90;;;;;;7390161;19;20154;-76
2022/12/15 06:27:08;;;;;;;32.67;16.53;;;2.20;99.90;;;;;;7389933;19;20247;-77
2022/12/15 06:29:36;;;;;;;30.07;15.87;;;1.80;99.90;;;;;;7389522;19;20142;-77
2022/12/15 06:32:03;;;;;;;35.20;17.70;;;2.20;99.90;;;;;;7387139;19;20465;-76
2022/12/15 06:34:29;;;;;;;32.17;18.10;;;2.50;99.90;;;;;;7388279;19;20131;-77
2022/12/15 06:36:54;;;;;;;28.87;17.00;;;2.60;99.90;;;;;;7386492;19;20142;-77
2022/12/15 06:39:20;;;;;;;33.10;16.90;;;2.50;99.90;;;;;;7384423;19;20151;-76
2022/12/15 06:41:46;;;;;;;37.57;17.97;;;2.60;99.90;;;;;;7387214;19;20605;-75
2022/12/15 06:44:14;;;;;;;32.53;16.90;;;2.80;99.90;;;;;;7386564;19;20126;-76
2022/12/15 06:46:39;;;;;;;28.40;15.40;;;2.70;99.90;;;;;;7387183;19;20145;-76
2022/12/15 06:49:07;;;;;;;31.23;16.80;;;2.60;99.90;;;;;;7386363;19;20206;-76
2022/12/15 06:51:33;;;;;;;28.20;16.53;;;2.40;99.90;;;;;;7388334;19;20198;-77
2022/12/15 06:54:00;;;;;;;32.13;16.53;;;2.50;99.90;;;;;;7387065;19;20142;-76
2022/12/15 06:56:29;;;;;;;34.83;17.70;;;2.60;99.90;;;;;;7382170;19;20213;-75
2022/12/15 06:58:57;;;;;;;27.10;15.77;;;2.50;99.90;;;;;;7382470;19;20550;-75
2022/12/15 07:01:23;;;;;;;31.00;16.67;;;2.60;99.90;;;;;;7387862;19;20151;-76
2022/12/15 07:03:50;;;;;;;34.57;16.50;;;2.70;99.90;;;;;;7386762;19;20143;-75
2022/12/15 07:06:17;;;;;;;34.57;17.73;;;2.70;99.90;;;;;;7387435;19;20133;-76
2022/12/15 07:08:47;;;;;;;31.00;17.27;;;2.80;99.90;;;;;;7390404;19;20146;-75
2022/12/15 07:11:12;;;;;;;35.17;17.47;;;2.70;99.90;;;;;;7395507;19;21203;-75
2022/12/15 07:13:40;;;;;;;27.53;16.33;;;2.70;99.90;;;;;;7395946;19;20222;-75
2022/12/15 07:16:07;;;;;;;31.63;16.37;;;2.70;99.90;;;;;;7399519;19;20134;-76
2022/12/15 07:18:32;;;;;;;30.23;16.17;;;2.50;99.90;;;;;;7398881;19;20582;-75
2022/12/15 07:21:04;;;;;;;29.23;17.00;;;2.60;99.90;;;;;;7392774;19;20126;-75
2022/12/15 07:23:30;;;;;;;27.30;15.87;;;2.60;99.90;;;;;;7395932;19;20158;-76
2022/12/15 07:25:56;;;;;;;30.77;16.80;;;2.70;99.90;;;;;;7397349;19;20131;-76
2022/12/15 07:28:22;;;;;;;29.47;16.00;;;2.70;99.90;;;;;;7396243;19;20135;-76
2022/12/15 07:30:47;;;;;;;31.70;16.27;;;2.70;99.90;;;;;;7398069;19;20131;-76
2022/12/15 07:33:14;;;;;;;32.83;18.73;;;2.70;99.90;;;;;;7398293;19;20387;-75
2022/12/15 07:35:41;;;;;;;30.53;17.30;;;2.70;99.90;;;;;;7396307;19;20138;-75
2022/12/15 07:38:07;;;;;;;32.80;17.07;;;2.70;99.90;;;;;;7391513;19;20152;-75
2022/12/15 07:40:33;;;;;;;32.77;16.57;;;2.80;99.90;;;;;;7392411;19;20129;-76
2022/12/15 07:42:59;;;;;;;28.20;16.47;;;2.80;99.90;;;;;;7395339;19;20567;-75
2022/12/15 07:45:25;;;;;;;31.90;17.23;;;2.80;99.90;;;;;;7397085;19;20247;-75
2022/12/15 07:47:52;;;;;;;31.03;16.10;;;2.80;99.90;;;;;;7395167;19;20591;-75
2022/12/15 07:50:18;;;;;;;30.70;17.13;;;2.80;99.90;;;;;;7397905;19;20134;-75
2022/12/15 07:52:45;;;;;;;30.07;15.87;;;2.80;99.90;;;;;;7394195;19;20225;-75
2022/12/15 07:55:11;;;;;;;32.30;17.27;;;2.80;99.90;;;;;;7394590;19;20150;-75
2022/12/15 07:57:36;;;;;;;32.77;16.67;;;2.80;99.90;;;;;;7394265;19;20165;-74
2022/12/15 08:00:06;;;;;;;32.17;17.10;;;2.60;99.90;;;;;;7394070;19;20502;-75
2022/12/15 08:02:31;;;;;;;34.07;17.37;;;2.70;99.90;;;;;;7389442;19;20142;-77
2022/12/15 08:04:57;;;;;;;33.65;19.38;;;2.70;99.90;;;;;;7385659;19;20388;-75
2022/12/15 08:07:23;;;;;;;28.87;17.00;;;2.80;99.90;;;;;;7390359;19;20543;-75
2022/12/15 08:09:49;;;;;;;29.73;16.70;;;2.90;99.90;;;;;;7391260;19;20574;-75
2022/12/15 08:12:15;;;;;;;31.27;16.33;;;2.80;99.90;;;;;;7389770;19;20134;-75
2022/12/15 08:14:41;;;;;;;29.60;16.83;;;2.80;99.90;;;;;;7392851;19;20236;-74
2022/12/15 08:17:07;;;;;;;31.10;17.50;;;2.80;99.90;;;;;;7391591;19;20158;-76
2022/12/15 08:19:33;;;;;;;30.00;16.20;;;2.80;99.90;;;;;;7389309;19;20470;-76
2022/12/15 08:21:59;;;;;;;32.17;16.43;;;2.90;99.90;;;;;;7391254;19;20234;-75
2022/12/15 08:24:24;;;;;;;31.83;16.23;;;2.90;99.90;;;;;;7387877;19;20532;-76
2022/12/15 08:26:51;;;;;;;32.60;17.33;;;2.90;99.90;;;;;;7387550;19;20234;-77
2022/12/15 08:29:17;;;;;;;31.60;17.30;;;2.90;99.90;;;;;;7390098;19;20250;-76
2022/12/15 08:31:43;;;;;;;34.23;17.00;;;2.90;99.90;;;;;;7389713;19;21083;-77
2022/12/15 08:34:10;;;;;;;32.40;18.03;;;2.90;99.90;;;;;;7389827;19;20127;-76
2022/12/15 08:36:35;;;;;;;30.20;16.23;;;2.90;99.90;;;;;;7390242;19;20158;-78
2022/12/15 08:39:02;;;;;;;30.20;16.47;;;2.90;99.90;;;;;;7389539;19;20167;-78
2022/12/15 08:41:30;;;;;;;34.53;18.23;;;3.00;99.90;;;;;;7391643;19;20191;-77
2022/12/15 08:43:57;;;;;;;28.90;17.43;;;3.10;99.90;;;;;;7394998;19;20130;-77
2022/12/15 08:46:26;;;;;;;33.47;20.33;;;3.00;99.90;;;;;;7391601;19;20400;-77
2022/12/15 08:48:52;;;;;;;31.53;18.30;;;3.20;99.90;;;;;;7393176;19;20149;-80
2022/12/15 08:51:19;;;;;;;32.20;16.80;;;3.00;99.90;;;;;;7395127;19;20586;-80
2022/12/15 08:53:45;;;;;;;32.70;16.70;;;3.00;99.90;;;;;;7391107;19;20154;-80
2022/12/15 08:56:17;;;;;;;32.93;17.00;;;3.00;99.90;;;;;;7391256;19;20186;-80
2022/12/15 08:58:44;;;;;;;30.27;16.63;;;2.80;99.90;;;;;;7391053;19;20214;-79
2022/12/15 09:01:19;;;;;;;29.90;16.13;;;3.00;99.90;;;;;;7390140;19;20184;-79
2022/12/15 09:03:45;;;;;;;30.20;17.53;;;3.00;99.90;;;;;;7387437;19;20188;-79
2022/12/15 09:06:15;;;;;;;29.93;17.17;;;3.00;99.90;;;;;;7392615;19;20205;-79
2022/12/15 09:08:41;;;;;;;31.83;16.93;;;3.00;99.90;;;;;;7388350;19;20152;-78
2022/12/15 09:11:07;;;;;;;34.13;18.20;;;3.00;99.90;;;;;;7391215;19;20203;-79
2022/12/15 09:13:33;;;;;;;36.53;17.77;;;3.10;99.90;;;;;;7387065;19;20452;-80
2022/12/15 09:16:04;;;;;;;39.27;17.57;;;3.10;99.90;;;;;;7388844;19;20175;-79
2022/12/15 09:18:30;;;;;;;30.80;17.37;;;3.10;99.90;;;;;;7391368;19;20150;-80
2022/12/15 09:21:02;;;;;;;36.30;16.70;;;3.10;99.90;;;;;;7389526;19;20513;-80
2022/12/15 09:23:28;;;;;;;30.23;16.77;;;3.10;99.90;;;;;;7392048;19;20255;-79
2022/12/15 09:26:02;;;;;;;32.17;18.13;;;3.10;99.90;;;;;;7390243;19;20142;-77
2022/12/15 09:28:28;;;;;;;33.57;17.80;;;3.10;99.90;;;;;;7385689;19;20134;-77
2022/12/15 09:31:05;;;;;;;36.80;17.83;;;3.30;99.90;;;;;;7386760;19;20167;-77
2022/12/15 09:33:31;;;;;;;31.38;20.88;;;3.20;99.90;;;;;;7388329;19;21038;-78
2022/12/15 09:35:57;;;;;;;33.30;19.07;;;3.30;99.90;;;;;;7392762;19;20159;-77
2022/12/15 09:38:23;;;;;;;32.83;19.03;;;3.30;99.90;;;;;;7393306;19;20130;-76
2022/12/15 09:40:49;;;;;;;36.90;19.27;;;3.40;99.90;;;;;;7389796;19;20163;-76
2022/12/15 09:43:20;;;;;;;36.30;17.90;;;3.40;99.90;;;;;;7391189;19;20686;-77
2022/12/15 09:45:51;;;;;;;34.00;17.00;;;3.50;99.90;;;;;;7387816;19;20153;-75
2022/12/15 09:48:20;;;;;;;35.43;18.70;;;3.40;99.90;;;;;;7387604;19;20138;-76
2022/12/15 09:50:49;;;;;;;34.67;16.10;;;3.40;99.90;;;;;;7387641;19;20161;-75
2022/12/15 09:53:17;;;;;;;30.70;17.43;;;3.40;99.90;;;;;;7388431;19;20123;-75
2022/12/15 09:55:51;;;;;;;28.37;15.97;;;3.40;99.90;;;;;;7390781;19;20144;-81
2022/12/15 09:58:39;;;;;;;35.03;17.57;;;3.40;99.90;;;;;;7391058;19;20453;-77
2022/12/15 10:01:18;;;;;;;43.03;18.13;;;3.50;99.90;;;;;;7387291;19;20595;-75
2022/12/15 10:04:10;;;;;;;37.93;16.67;;;3.40;99.90;;;;;;7388217;19;20155;-77
2022/12/15 10:06:40;;;;;;;30.93;16.80;;;3.40;99.90;;;;;;7391235;19;20167;-81
2022/12/15 10:09:26;;;;;;;34.80;17.10;;;3.30;99.90;;;;;;7394466;19;20143;-76
2022/12/15 10:12:21;;;;;;;31.73;16.43;;;3.40;99.90;;;;;;7388356;19;20462;-75
2022/12/15 10:14:57;;;;;;;30.73;16.87;;;3.40;99.90;;;;;;7388806;19;20150;-76
2022/12/15 10:17:40;;;;;;;31.27;16.77;;;3.50;99.90;;;;;;7383296;19;20554;-76
2022/12/15 10:20:16;;;;;;;28.70;15.83;;;3.10;99.90;;;;;;7386012;19;20148;-76
2022/12/15 10:22:42;;;;;;;30.40;15.83;;;3.20;99.90;;;;;;7386706;19;20146;-77
2022/12/15 10:25:28;;;;;;;28.27;15.63;;;3.40;99.90;;;;;;7387230;19;20130;-76
2022/12/15 10:28:15;;;;;;;31.73;16.13;;;3.40;99.90;;;;;;7388845;19;20138;-77
2022/12/15 10:30:58;;;;;;;29.57;16.37;;;3.40;99.90;;;;;;7388805;19;20151;-75
2022/12/15 10:33:27;;;;;;;32.23;17.63;;;3.50;99.90;;;;;;7386049;19;20607;-76
2022/12/15 10:35:54;;;;;;;31.00;16.03;;;3.50;99.90;;;;;;7384001;19;20161;-77
2022/12/15 10:38:40;;;;;;;30.50;16.27;;;3.50;99.90;;;;;;7384981;19;20589;-75
2022/12/15 10:41:11;;;;;;;30.67;16.00;;;3.50;99.90;;;;;;7383308;19;20409;-77
2022/12/15 10:43:42;;;;;;;33.40;17.03;;;3.40;99.90;;;;;;7383546;19;20155;-76
2022/12/15 10:46:08;;;;;;;28.73;16.00;;;3.40;99.90;;;;;;7390927;19;20611;-76
2022/12/15 10:48:36;;;;;;;31.40;16.67;;;3.40;99.90;;;;;;7390790;19;20147;-77
2022/12/15 10:51:36;;;;;;;30.57;16.20;;;3.40;99.90;;;;;;7392731;19;20130;-76
2022/12/15 10:54:10;;;;;;;32.87;16.03;;;3.30;99.90;;;;;;7389567;19;20147;-75
2022/12/15 10:56:46;;;;;;;32.40;16.20;;;3.30;99.90;;;;;;7388070;19;20160;-76
2022/12/15 10:59:30;;;;;;;31.83;16.53;;;3.30;99.90;;;;;;7394382;19;20157;-77
2022/12/15 11:02:19;;;;;;;29.97;15.97;;;3.20;99.90;;;;;;7403075;19;20142;-76
2022/12/15 11:05:20;;;;;;;29.70;16.17;;;3.20;99.90;;;;;;7398310;19;20577;-76
2022/12/15 11:07:54;;;;;;;31.30;16.47;;;3.40;99.90;;;;;;7387856;19;20198;-77
2022/12/15 11:10:24;;;;;;;36.27;17.53;;;3.40;99.90;;;;;;7392040;19;20598;-75
2022/12/15 11:13:09;;;;;;;30.77;16.67;;;3.50;99.90;;;;;;7403347;19;20532;-76
2022/12/15 11:15:55;;;;;;;28.67;16.07;;;3.40;99.90;;;;;;7390562;19;20146;-77
2022/12/15 11:18:55;;;;;;;30.27;15.70;;;3.50;99.90;;;;;;7390789;19;20129;-77
2022/12/15 11:21:31;;;;;;;25.63;15.63;;;3.60;99.90;;;;;;7387817;19;20601;-77
2022/12/15 11:24:17;;;;;;;29.67;15.77;;;3.60;99.90;;;;;;7390844;19;20569;-75
2022/12/15 11:27:09;;;;;;;32.67;16.20;;;3.60;99.90;;;;;;7390102;19;20146;-76
2022/12/15 11:29:41;;;;;;;32.17;16.90;;;3.50;99.90;;;;;;7390959;19;20158;-77
2022/12/15 11:32:11;;;;;;;31.40;16.80;;;3.50;99.90;;;;;;7395437;19;20155;-76
2022/12/15 11:34:46;;;;;;;33.20;16.27;;;3.00;99.90;;;;;;7399260;19;20455;-75
2022/12/15 11:37:37;;;;;;;34.40;16.83;;;3.10;99.90;;;;;;7393036;19;20154;-76
2022/12/15 11:40:32;;;;;;;33.67;18.00;;;3.40;99.90;;;;;;7389705;19;20150;-76
2022/12/15 11:43:19;;;;;;;33.00;16.70;;;3.50;99.90;;;;;;7400546;19;20167;-76
2022/12/15 11:46:25;;;;;;;32.30;16.57;;;3.60;99.90;;;;;;7391548;19;20154;-76
2022/12/15 11:49:17;;;;;;;32.90;16.80;;;3.50;99.90;;;;;;7388622;19;20174;-77
2022/12/15 11:52:07;;;;;;;29.37;16.43;;;3.50;99.90;;;;;;7390962;19;20591;-78
2022/12/15 11:54:54;;;;;;;29.33;16.13;;;3.50;99.90;;;;;;7393337;19;20152;-76
2022/12/15 11:57:26;;;;;;;29.47;15.93;;;3.50;99.90;;;;;;7391247;19;20146;-77
2022/12/15 12:00:15;;;;;;;32.13;16.40;;;3.60;99.90;;;;;;7392004;19;20658;-77
2022/12/15 12:02:46;;;;;;;30.87;16.13;;;3.60;99.90;;;;;;7389451;19;20162;-77
2022/12/15 12:05:19;;;;;;;30.13;16.03;;;3.70;99.90;;;;;;7388824;19;20170;-77
2022/12/15 12:08:00;;;;;;;33.13;16.60;;;4.00;99.90;;;;;;7391284;19;20221;-77
2022/12/15 12:10:47;;;;;;;32.33;16.87;;;4.10;99.90;;;;;;7392388;19;20150;-76
2022/12/15 12:13:50;;;;;;;29.77;16.37;;;3.90;99.90;;;;;;7391867;19;20146;-77
2022/12/15 12:16:34;;;;;;;31.17;16.27;;;3.80;99.90;;;;;;7391332;19;20154;-77
2022/12/15 12:19:09;;;;;;;27.53;16.03;;;3.60;99.90;;;;;;7395942;19;20130;-76
2022/12/15 12:22:00;;;;;;;29.90;15.50;;;3.70;99.90;;;;;;7389140;19;20506;-77
2022/12/15 12:24:59;;;;;;;29.37;16.53;;;3.60;99.90;;;;;;7387925;19;20143;-76
2022/12/15 12:27:40;;;;;;;25.33;15.53;;;3.60;99.90;;;;;;7388109;19;20156;-77
2022/12/15 12:30:18;;;;;;;30.73;16.17;;;3.70;99.90;;;;;;7393901;19;20126;-76
2022/12/15 12:32:47;;;;;;;28.97;15.97;;;3.70;99.90;;;;;;7391852;19;20563;-77
2022/12/15 12:35:20;;;;;;;33.43;17.10;;;3.80;99.90;;;;;;7390452;19;20142;-77
2022/12/15 12:38:01;;;;;;;27.73;16.27;;;3.70;99.90;;;;;;7387338;19;20169;-77
2022/12/15 12:40:50;;;;;;;29.23;17.07;;;3.80;99.90;;;;;;7384035;19;20510;-77
2022/12/15 12:43:30;;;;;;;28.50;15.70;;;3.70;99.90;;;;;;7386827;19;20614;-76
2022/12/15 12:46:12;;;;;;;33.80;16.33;;;4.00;99.90;;;;;;7390876;19;20145;-75
2022/12/15 12:48:51;;;;;;;31.30;16.60;;;3.80;99.90;;;;;;7388981;19;20567;-78
2022/12/15 12:51:31;;;;;;;29.03;15.63;;;3.90;99.90;;;;;;7385778;19;20162;-78
2022/12/15 12:53:58;;;;;;;27.97;15.90;;;3.90;99.90;;;;;;7388784;19;20615;-77
2022/12/15 12:56:40;;;;;;;26.50;15.57;;;4.00;99.90;;;;;;7387918;19;20233;-76
2022/12/15 12:59:35;;;;;;;24.90;14.40;;;4.00;99.90;;;;;;7389846;19;20165;-76
2022/12/15 13:02:19;;;;;;;29.43;15.10;;;4.10;99.90;;;;;;7387736;19;20158;-79
2022/12/15 13:04:50;;;;;;;26.40;14.83;;;4.10;99.90;;;;;;7385101;19;20178;-74
2022/12/15 13:07:39;;;;;;;28.10;15.63;;;4.10;99.90;;;;;;7389987;19;20174;-76
2022/12/15 13:10:09;;;;;;;32.70;15.63;;;4.10;99.90;;;;;;7392647;19;20129;-75
2022/12/15 13:12:35;;;;;;;27.77;15.53;;;4.00;99.90;;;;;;7392341;19;20130;-75
2022/12/15 13:15:13;;;;;;;29.47;16.77;;;4.00;99.90;;;;;;7390277;19;20155;-74
2022/12/15 13:17:47;;;;;;;30.37;16.27;;;4.00;99.90;;;;;;7389914;19;20162;-75
2022/12/15 13:20:22;;;;;;;32.13;16.53;;;4.00;99.90;;;;;;7388295;19;20142;-78
2022/12/15 13:22:50;;;;;;;27.40;15.17;;;3.90;99.90;;;;;;7387946;19;20165;-77
2022/12/15 13:25:34;;;;;;;28.37;16.53;;;3.90;99.90;;;;;;7389041;19;20135;-80
2022/12/15 13:28:15;;;;;;;28.17;16.17;;;4.00;99.90;;;;;;7390128;19;20678;-78
2022/12/15 13:31:16;;;;;;;31.63;15.63;;;3.90;99.90;;;;;;7388821;19;20174;-77
2022/12/15 13:33:48;;;;;;;26.00;15.27;;;4.00;99.90;;;;;;7386920;19;20209;-76
2022/12/15 13:36:35;;;;;;;30.77;15.33;;;4.00;99.90;;;;;;7394622;19;20154;-77
2022/12/15 13:39:13;;;;;;;28.47;15.60;;;4.00;99.90;;;;;;7389730;19;20150;-78
2022/12/15 13:41:47;;;;;;;28.70;15.37;;;4.00;99.90;;;;;;7389313;19;20149;-77
2022/12/15 13:44:51;;;;;;;32.90;15.43;;;4.00;99.90;;;;;;7392571;19;20133;-78
2022/12/15 13:47:28;;;;;;;29.17;14.47;;;3.90;99.90;;;;;;7390255;19;20209;-78
2022/12/15 13:50:00;;;;;;;28.47;16.10;;;3.90;99.90;;;;;;7391400;19;20130;-77
2022/12/15 13:52:31;;;;;;;27.70;15.63;;;3.90;99.90;;;;;;7387778;19;20150;-77
2022/12/15 13:55:04;;;;;;;26.23;14.67;;;4.00;99.90;;;;;;7387621;19;20130;-78
2022/12/15 13:57:38;;;;;;;26.67;15.73;;;4.00;99.90;;;;;;7384451;19;20146;-79
2022/12/15 14:00:17;;;;;;;27.23;14.80;;;4.00;99.90;;;;;;7386694;19;20222;-78
2022/12/15 14:02:43;;;;;;;54.77;27.50;;;4.00;99.90;;;;;;7381581;19;20158;-78
2022/12/15 14:05:24;;;;;;;34.00;16.70;;;3.90;99.90;;;;;;7382069;19;20154;-77
2022/12/15 14:07:53;;;;;;;26.50;14.80;;;3.90;99.90;;;;;;7385197;19;20134;-77
2022/12/15 14:10:24;;;;;;;29.93;15.03;;;4.00;99.90;;;;;;7387370;19;20139;-78
2022/12/15 14:12:54;;;;;;;27.57;15.60;;;4.00;99.90;;;;;;7386103;19;20138;-79
2022/12/15 14:15:29;;;;;;;27.23;14.93;;;4.00;99.90;;;;;;7388227;19;20131;-79
2022/12/15 14:17:57;;;;;;;26.53;13.53;;;4.00;99.90;;;;;;7387185;19;20142;-79
2022/12/15 14:20:30;;;;;;;26.33;14.63;;;4.10;99.90;;;;;;7387502;19;20138;-78
2022/12/15 14:22:58;;;;;;;29.00;14.33;;;4.10;99.90;;;;;;7386433;19;20148;-79
2022/12/15 14:25:29;;;;;;;26.30;14.13;;;4.00;99.90;;;;;;7389647;19;20751;-78
2022/12/15 14:27:56;;;;;;;24.83;13.77;;;4.00;99.90;;;;;;7388482;19;20158;-77
2022/12/15 14:30:32;;;;;;;25.53;14.53;;;4.00;99.90;;;;;;7390092;19;20142;-77
2022/12/15 14:33:18;;;;;;;27.23;15.20;;;4.10;99.90;;;;;;7388923;19;20146;-76
2022/12/15 14:35:50;;;;;;;29.17;14.67;;;4.00;99.90;;;;;;7389579;19;20160;-77
2022/12/15 14:38:32;;;;;;;25.90;15.00;;;4.00;99.90;;;;;;7384667;19;20146;-77
2022/12/15 14:41:01;;;;;;;24.93;14.33;;;4.00;99.90;;;;;;7388800;19;20246;-77
2022/12/15 14:43:33;;;;;;;28.07;15.53;;;4.00;99.90;;;;;;7389298;19;20147;-77
2022/12/15 14:46:14;;;;;;;31.17;16.77;;;4.00;99.90;;;;;;7392826;19;20587;-77
2022/12/15 14:48:48;;;;;;;31.57;15.60;;;4.00;99.90;;;;;;7388244;19;20579;-77
2022/12/15 14:51:14;;;;;;;30.33;16.80;;;4.10;99.90;;;;;;7390592;19;20205;-77
2022/12/15 14:53:41;;;;;;;28.73;15.20;;;4.10;99.90;;;;;;7387557;19;20148;-78
2022/12/15 14:56:26;;;;;;;28.00;15.47;;;4.10;99.90;;;;;;7388103;19;20495;-78
2022/12/15 14:58:58;;;;;;;26.17;14.97;;;4.00;99.90;;;;;;7388260;19;20126;-76
2022/12/15 15:01:33;;;;;;;33.20;15.73;;;4.00;99.90;;;;;;7397802;19;20524;-77
2022/12/15 15:04:02;;;;;;;29.57;15.90;;;4.00;99.90;;;;;;7394841;19;20149;-77
2022/12/15 15:06:38;;;;;;;27.47;14.70;;;4.00;99.90;;;;;;7393033;19;20540;-77
2022/12/15 15:09:22;;;;;;;28.07;14.87;;;4.00;99.90;;;;;;7389123;19;20130;-77
2022/12/15 15:11:52;;;;;;;32.73;16.10;;;4.00;99.90;;;;;;7387003;19;20685;-77
2022/12/15 15:14:38;;;;;;;26.77;14.50;;;4.00;99.90;;;;;;7386746;19;20720;-77
2022/12/15 15:17:37;;;;;;;29.33;15.13;;;4.00;99.90;;;;;;7388292;19;20134;-76
2022/12/15 15:20:28;;;;;;;27.07;14.57;;;4.00;99.90;;;;;;7387666;19;20147;-78
2022/12/15 15:23:14;;;;;;;26.50;15.20;;;3.90;99.90;;;;;;7386954;19;20206;-78
2022/12/15 15:26:03;;;;;;;28.60;14.80;;;4.20;99.90;;;;;;7383263;19;20633;-76
2022/12/15 15:28:41;;;;;;;30.10;15.20;;;4.00;99.90;;;;;;7385520;19;20162;-78
2022/12/15 15:31:29;;;;;;;26.27;14.07;;;4.10;99.90;;;;;;7392462;19;20145;-77